createdAt,value
2017-11-03T00:00:46.620Z,20.60
2017-11-03T00:03:13.024Z,22.30
2017-11-03T00:05:39.471Z,20.73
2017-11-03T00:08:06.655Z,25.73
2017-11-03T00:10:33.062Z,22.87
2017-11-03T00:13:00.260Z,19.83
2017-11-03T00:15:27.415Z,19.87
2017-11-03T00:17:53.839Z,21.27
2017-11-03T00:20:21.027Z,23.58
2017-11-03T00:22:48.151Z,24.20
2017-11-03T00:25:14.567Z,26.17
2017-11-03T00:27:40.938Z,22.27
2017-11-03T00:30:07.380Z,16.80
2017-11-03T00:32:33.762Z,25.83
2017-11-03T00:35:00.228Z,24.98
2017-11-03T00:37:26.639Z,21.62
2017-11-03T00:39:53.032Z,24.12
2017-11-03T00:42:19.448Z,19.15
2017-11-03T00:44:46.594Z,19.95
2017-11-03T00:47:13.059Z,22.75
2017-11-03T00:49:39.559Z,16.23
2017-11-03T00:52:07.044Z,24.40
2017-11-03T00:54:34.196Z,17.12
2017-11-03T00:57:01.355Z,18.10
2017-11-03T00:59:27.743Z,22.33
2017-11-03T01:01:54.124Z,18.42
2017-11-03T01:04:20.583Z,18.35
2017-11-03T01:06:47.049Z,22.70
2017-11-03T01:09:14.204Z,26.52
2017-11-03T01:11:41.393Z,22.95
2017-11-03T01:14:08.509Z,17.92
2017-11-03T01:16:34.916Z,23.40
2017-11-03T01:19:01.400Z,25.35
2017-11-03T01:21:27.840Z,23.45
2017-11-03T01:23:54.292Z,21.98
2017-11-03T01:26:21.435Z,23.38
2017-11-03T01:28:47.803Z,25.12
2017-11-03T01:31:14.266Z,22.08
2017-11-03T01:33:41.470Z,19.67
2017-11-03T01:36:07.867Z,16.92
2017-11-03T01:38:34.252Z,24.63
2017-11-03T01:41:00.712Z,22.37
2017-11-03T01:43:27.170Z,17.95
2017-11-03T01:45:53.612Z,19.52
2017-11-03T01:48:20.083Z,19.17
2017-11-03T01:50:46.523Z,19.40
2017-11-03T01:53:12.947Z,19.52
2017-11-03T01:55:39.432Z,19.27
2017-11-03T01:58:05.801Z,23.67
2017-11-03T02:00:32.211Z,23.38
2017-11-03T02:02:59.419Z,23.05
2017-11-03T02:05:25.859Z,22.87
2017-11-03T02:07:52.303Z,20.33
2017-11-03T02:10:18.707Z,17.42
2017-11-03T02:12:45.187Z,18.77
2017-11-03T02:15:12.316Z,20.15
2017-11-03T02:17:39.450Z,18.67
2017-11-03T02:20:05.852Z,20.88
2017-11-03T02:22:33.015Z,19.75
2017-11-03T02:24:59.440Z,23.52
2017-11-03T02:27:26.620Z,18.50
2017-11-03T02:29:53.744Z,22.37
2017-11-03T02:32:20.919Z,21.25
2017-11-03T02:34:47.315Z,21.50
2017-11-03T02:37:13.747Z,21.92
2017-11-03T02:39:40.173Z,22.30
2017-11-03T02:42:06.622Z,20.23
2017-11-03T02:44:33.032Z,19.35
2017-11-03T02:46:59.448Z,21.62
2017-11-03T02:49:25.891Z,18.65
2017-11-03T02:51:52.300Z,20.67
2017-11-03T02:54:18.704Z,23.35
2017-11-03T02:56:45.108Z,19.87
2017-11-03T02:59:11.531Z,23.62
2017-11-03T03:01:38.012Z,18.10
2017-11-03T03:04:04.400Z,19.90
2017-11-03T03:06:31.582Z,18.00
2017-11-03T03:08:58.024Z,24.50
2017-11-03T03:11:24.479Z,19.33
2017-11-03T03:13:51.036Z,25.67
2017-11-03T03:16:17.480Z,24.30
2017-11-03T03:18:43.912Z,16.33
2017-11-03T03:21:10.359Z,19.95
2017-11-03T03:23:36.784Z,16.45
2017-11-03T03:26:03.196Z,21.75
2017-11-03T03:28:29.660Z,22.65
2017-11-03T03:30:56.163Z,18.65
2017-11-03T03:33:22.583Z,19.85
2017-11-03T03:35:49.741Z,23.58
2017-11-03T03:38:16.202Z,20.60
2017-11-03T03:40:42.632Z,25.27
2017-11-03T03:43:09.029Z,15.95
2017-11-03T03:45:37.323Z,20.17
2017-11-03T03:48:04.480Z,20.55
2017-11-03T03:50:30.983Z,18.02
2017-11-03T03:52:57.411Z,23.58
2017-11-03T03:55:24.548Z,19.30
2017-11-03T03:57:50.984Z,20.20
2017-11-03T04:00:17.480Z,27.77
2017-11-03T04:02:44.644Z,21.05
2017-11-03T04:05:11.084Z,15.65
2017-11-03T04:07:37.536Z,21.05
2017-11-03T04:10:03.947Z,16.23
2017-11-03T04:12:30.327Z,22.85
2017-11-03T04:14:56.863Z,17.00
2017-11-03T04:17:23.308Z,20.25
2017-11-03T04:19:49.710Z,16.42
2017-11-03T04:22:16.112Z,15.55
2017-11-03T04:24:42.604Z,18.37
2017-11-03T04:27:09.024Z,18.85
2017-11-03T04:29:35.545Z,16.62
2017-11-03T04:32:01.980Z,16.52
2017-11-03T04:34:28.409Z,15.25
2017-11-03T04:36:54.895Z,20.05
2017-11-03T04:39:21.322Z,19.17
2017-11-03T04:41:47.745Z,18.83
2017-11-03T04:44:14.149Z,19.00
2017-11-03T04:46:40.637Z,17.15
2017-11-03T04:49:07.829Z,20.25
2017-11-03T04:51:34.310Z,18.30
2017-11-03T04:54:00.729Z,15.93
2017-11-03T04:56:27.132Z,17.08
2017-11-03T04:58:54.669Z,21.65
2017-11-03T05:01:21.124Z,17.20
2017-11-03T05:03:47.640Z,18.27
2017-11-03T05:06:14.071Z,18.62
2017-11-03T05:08:40.482Z,22.67
2017-11-03T05:11:07.625Z,18.52
2017-11-03T05:13:34.791Z,17.80
2017-11-03T05:16:01.185Z,16.62
2017-11-03T05:18:27.568Z,13.00
2017-11-03T05:20:54.717Z,17.12
2017-11-03T05:23:21.119Z,15.95
2017-11-03T05:25:47.527Z,15.50
2017-11-03T05:28:13.923Z,20.40
2017-11-03T05:30:40.404Z,17.90
2017-11-03T05:33:06.831Z,17.08
2017-11-03T05:35:33.288Z,18.85
2017-11-03T05:37:59.760Z,18.10
2017-11-03T05:40:26.168Z,14.05
2017-11-03T05:42:53.416Z,15.73
2017-11-03T05:45:19.839Z,16.90
2017-11-03T05:47:46.424Z,19.98
2017-11-03T05:50:12.819Z,18.48
2017-11-03T05:52:39.986Z,15.50
2017-11-03T05:55:06.408Z,18.12
2017-11-03T05:57:32.820Z,14.80
2017-11-03T05:59:59.248Z,14.70
2017-11-03T06:02:25.624Z,14.40
2017-11-03T06:04:52.791Z,16.90
2017-11-03T06:07:19.339Z,20.77
2017-11-03T06:09:45.720Z,13.43
2017-11-03T06:12:12.259Z,17.58
2017-11-03T06:14:38.660Z,17.23
2017-11-03T06:17:05.060Z,14.57
2017-11-03T06:19:31.483Z,21.08
2017-11-03T06:21:58.570Z,16.48
2017-11-03T06:24:25.020Z,17.17
2017-11-03T06:26:51.504Z,17.05
2017-11-03T06:29:19.654Z,25.37
2017-11-03T06:31:46.096Z,16.58
2017-11-03T06:34:12.492Z,23.62
2017-11-03T06:36:38.930Z,16.40
2017-11-03T06:39:05.406Z,18.12
2017-11-03T06:41:31.830Z,22.95
2017-11-03T06:43:58.268Z,17.87
2017-11-03T06:46:24.711Z,19.92
2017-11-03T06:48:51.115Z,18.23
2017-11-03T06:51:17.528Z,30.65
2017-11-03T06:53:44.677Z,34.78
2017-11-03T06:56:11.809Z,38.85
2017-11-03T06:58:38.247Z,73.93
2017-11-03T07:01:04.708Z,51.70
2017-11-03T07:03:31.932Z,50.08
2017-11-03T07:05:58.371Z,50.33
2017-11-03T07:08:24.822Z,62.83
2017-11-03T07:10:51.269Z,47.00
2017-11-03T07:13:17.677Z,50.80
2017-11-03T07:15:44.828Z,49.25
2017-11-03T07:18:12.048Z,45.85
2017-11-03T07:20:38.430Z,49.80
2017-11-03T07:23:04.797Z,50.30
2017-11-03T07:25:31.307Z,36.60
2017-11-03T07:27:57.685Z,42.53
2017-11-03T07:30:24.084Z,40.75
2017-11-03T07:32:50.507Z,35.08
2017-11-03T07:35:16.931Z,36.33
2017-11-03T07:37:43.306Z,43.50
2017-11-03T07:40:09.712Z,29.67
2017-11-03T07:42:36.881Z,34.13
2017-11-03T07:45:03.299Z,47.42
2017-11-03T07:47:30.439Z,36.17
2017-11-03T07:49:56.815Z,37.55
2017-11-03T07:52:23.229Z,39.22
2017-11-03T07:54:49.636Z,43.58
2017-11-03T07:57:16.079Z,50.88
2017-11-03T07:59:42.527Z,37.15
2017-11-03T08:02:08.895Z,40.63
2017-11-03T08:04:35.372Z,43.20
2017-11-03T08:07:01.800Z,43.35
2017-11-03T08:09:28.199Z,40.88
2017-11-03T08:11:54.658Z,52.22
2017-11-03T08:14:21.100Z,42.33
2017-11-03T08:16:47.496Z,42.35
2017-11-03T08:19:14.672Z,40.30
2017-11-03T08:21:41.155Z,44.42
2017-11-03T08:24:07.527Z,49.85
2017-11-03T08:26:34.012Z,48.22
2017-11-03T08:29:00.405Z,39.17
2017-11-03T08:31:26.790Z,39.92
2017-11-03T08:33:53.258Z,37.88
2017-11-03T08:36:19.691Z,33.33
2017-11-03T08:38:46.106Z,42.80
2017-11-03T08:41:12.511Z,38.70
2017-11-03T08:43:38.938Z,47.17
2017-11-03T08:46:05.384Z,39.85
2017-11-03T08:48:31.803Z,43.03
2017-11-03T08:50:58.191Z,45.08
2017-11-03T08:53:24.627Z,47.05
2017-11-03T08:55:51.047Z,50.25
2017-11-03T08:58:17.499Z,45.50
2017-11-03T09:00:43.895Z,42.53
2017-11-03T09:03:10.347Z,45.75
2017-11-03T09:05:37.549Z,43.33
2017-11-03T09:08:04.004Z,53.15
2017-11-03T09:10:30.448Z,46.28
2017-11-03T09:12:56.884Z,55.15
2017-11-03T09:15:23.325Z,48.03
2017-11-03T09:17:49.779Z,42.70
2017-11-03T09:20:16.233Z,40.92
2017-11-03T09:22:42.654Z,38.90
2017-11-03T09:25:09.125Z,38.13
2017-11-03T09:27:35.647Z,48.13
2017-11-03T09:30:02.088Z,41.15
2017-11-03T09:32:28.529Z,37.03
2017-11-03T09:34:55.020Z,35.83
2017-11-03T09:37:21.423Z,54.72
2017-11-03T09:39:47.904Z,35.90
2017-11-03T09:42:14.379Z,40.22
2017-11-03T09:44:40.836Z,36.15
2017-11-03T09:47:08.016Z,38.78
2017-11-03T09:49:34.460Z,46.42
2017-11-03T09:52:00.931Z,47.67
2017-11-03T09:54:27.400Z,43.95
2017-11-03T09:56:53.835Z,46.35
2017-11-03T09:59:20.261Z,44.35
2017-11-03T10:01:46.695Z,46.42
2017-11-03T10:04:14.169Z,58.00
2017-11-03T10:06:41.335Z,44.13
2017-11-03T10:09:07.719Z,48.70
2017-11-03T10:11:34.903Z,59.75
2017-11-03T10:14:02.462Z,59.45
2017-11-03T10:16:29.103Z,47.65
2017-11-03T10:18:55.508Z,58.25
2017-11-03T10:21:21.971Z,51.80
2017-11-03T10:23:48.404Z,52.80
2017-11-03T10:26:14.843Z,46.72
2017-11-03T10:28:41.258Z,54.58
2017-11-03T10:31:08.463Z,53.42
2017-11-03T10:33:36.376Z,46.55
2017-11-03T10:36:02.836Z,60.20
2017-11-03T10:38:30.047Z,58.78
2017-11-03T10:40:56.496Z,58.75
2017-11-03T10:43:24.033Z,53.42
2017-11-03T10:45:51.224Z,53.87
2017-11-03T10:48:17.677Z,65.68
2017-11-03T10:50:44.115Z,51.63
2017-11-03T10:53:10.739Z,54.83
2017-11-03T10:55:37.195Z,59.70
2017-11-03T10:58:03.779Z,58.78
2017-11-03T11:00:30.240Z,48.45
2017-11-03T11:02:56.696Z,55.47
2017-11-03T11:05:23.863Z,59.38
2017-11-03T11:07:50.356Z,52.97
2017-11-03T11:10:16.795Z,49.25
2017-11-03T11:12:43.232Z,50.75
2017-11-03T11:15:09.643Z,48.28
2017-11-03T11:17:36.780Z,48.10
2017-11-03T11:20:03.254Z,42.10
2017-11-03T11:22:29.784Z,49.03
2017-11-03T11:24:57.707Z,58.83
2017-11-03T11:27:24.151Z,55.40
2017-11-03T11:29:50.622Z,58.63
2017-11-03T11:32:17.068Z,63.23
2017-11-03T11:34:43.499Z,51.53
2017-11-03T11:37:11.064Z,51.03
2017-11-03T11:39:37.469Z,52.00
2017-11-03T11:42:03.954Z,51.40
2017-11-03T11:44:30.364Z,49.13
2017-11-03T11:46:56.796Z,50.50
2017-11-03T11:49:23.224Z,51.10
2017-11-03T11:51:49.685Z,50.33
2017-11-03T11:54:16.084Z,48.13
2017-11-03T11:56:42.560Z,43.40
2017-11-03T11:59:09.010Z,41.73
2017-11-03T12:01:35.469Z,49.40
2017-11-03T12:04:01.875Z,49.20
2017-11-03T12:06:28.424Z,52.77
2017-11-03T12:08:54.863Z,53.23
2017-11-03T12:11:21.295Z,43.57
2017-11-03T12:13:47.812Z,38.23
2017-11-03T12:16:14.991Z,44.77
2017-11-03T12:18:41.439Z,44.27
2017-11-03T12:21:07.904Z,46.37
2017-11-03T12:23:34.371Z,48.57
2017-11-03T12:26:00.917Z,41.30
2017-11-03T12:28:27.436Z,39.87
2017-11-03T12:30:53.892Z,51.60
2017-11-03T12:33:20.316Z,47.73
2017-11-03T12:35:46.772Z,42.30
2017-11-03T12:38:13.240Z,49.13
2017-11-03T12:40:39.692Z,38.83
2017-11-03T12:43:06.188Z,40.87
2017-11-03T12:45:32.701Z,42.60
2017-11-03T12:47:59.131Z,43.53
2017-11-03T12:50:25.551Z,35.00
2017-11-03T12:52:51.988Z,42.73
2017-11-03T12:55:18.440Z,35.80
2017-11-03T12:57:45.012Z,33.30
2017-11-03T13:00:11.447Z,39.90
2017-11-03T13:02:37.865Z,39.60
2017-11-03T13:05:04.336Z,34.93
2017-11-03T13:07:30.833Z,35.23
2017-11-03T13:09:57.307Z,38.20
2017-11-03T13:12:23.804Z,47.63
2017-11-03T13:14:50.271Z,42.70
2017-11-03T13:17:17.662Z,33.00
2017-11-03T13:19:44.097Z,40.97
2017-11-03T13:22:10.597Z,39.73
2017-11-03T13:24:37.032Z,52.73
2017-11-03T13:27:04.604Z,39.37
2017-11-03T13:29:31.061Z,35.33
2017-11-03T13:31:57.491Z,37.73
2017-11-03T13:34:23.965Z,31.73
2017-11-03T13:36:50.395Z,41.07
2017-11-03T13:39:16.833Z,29.80
2017-11-03T13:41:43.265Z,35.93
2017-11-03T13:44:09.695Z,31.40
2017-11-03T13:46:36.183Z,32.90
2017-11-03T13:49:02.642Z,37.37
2017-11-03T13:51:30.764Z,36.60
2017-11-03T13:53:57.268Z,34.00
2017-11-03T13:56:23.708Z,28.10
2017-11-03T13:58:51.146Z,32.80
2017-11-03T14:01:17.615Z,30.33
2017-11-03T14:03:44.076Z,30.33
2017-11-03T14:06:10.488Z,28.50
2017-11-03T14:08:36.939Z,33.37
2017-11-03T14:11:03.360Z,36.33
2017-11-03T14:13:29.772Z,32.40
2017-11-03T14:15:56.945Z,31.17
2017-11-03T14:18:23.353Z,31.13
2017-11-03T14:20:49.755Z,33.33
2017-11-03T14:23:16.196Z,30.73
2017-11-03T14:25:42.588Z,30.00
2017-11-03T14:28:09.036Z,30.20
2017-11-03T14:30:36.192Z,29.90
2017-11-03T14:33:02.602Z,33.00
2017-11-03T14:35:29.020Z,35.23
2017-11-03T14:37:55.539Z,30.30
2017-11-03T14:40:23.818Z,32.23
2017-11-03T14:42:50.279Z,29.40
2017-11-03T14:45:16.707Z,26.60
2017-11-03T14:47:43.116Z,36.87
2017-11-03T14:50:09.536Z,32.10
2017-11-03T14:52:35.933Z,34.57
2017-11-03T14:55:02.323Z,29.50
2017-11-03T14:57:28.731Z,28.23
2017-11-03T14:59:55.910Z,34.87
2017-11-03T15:02:23.103Z,31.57
2017-11-03T15:04:49.497Z,33.77
2017-11-03T15:07:16.656Z,29.23
2017-11-03T15:09:43.111Z,31.20
2017-11-03T15:12:09.542Z,34.77
2017-11-03T15:14:36.763Z,40.63
2017-11-03T15:17:03.222Z,44.07
2017-11-03T15:19:29.630Z,34.37
2017-11-03T15:21:56.131Z,38.10
2017-11-03T15:24:22.551Z,40.30
2017-11-03T15:26:48.892Z,41.57
2017-11-03T15:29:15.343Z,35.43
2017-11-03T15:31:41.754Z,34.57
2017-11-03T15:34:08.936Z,28.83
2017-11-03T15:36:35.434Z,34.17
2017-11-03T15:39:01.867Z,34.00
2017-11-03T15:41:28.320Z,39.63
2017-11-03T15:43:54.803Z,35.60
2017-11-03T15:46:21.276Z,34.70
2017-11-03T15:48:47.708Z,36.50
2017-11-03T15:51:14.235Z,35.83
2017-11-03T15:53:40.681Z,42.60
2017-11-03T15:56:07.149Z,36.53
2017-11-03T15:58:33.572Z,40.60
2017-11-03T16:01:00.058Z,35.37
2017-11-03T16:03:27.294Z,28.97
2017-11-03T16:05:53.821Z,26.37
2017-11-03T16:08:20.348Z,40.23
2017-11-03T16:10:46.756Z,29.70
2017-11-03T16:13:13.530Z,33.07
2017-11-03T16:15:40.310Z,28.67
2017-11-03T16:18:06.807Z,42.00
2017-11-03T16:20:33.388Z,35.70
2017-11-03T16:23:00.817Z,37.53
2017-11-03T16:25:27.948Z,37.63
2017-11-03T16:27:54.859Z,35.90
2017-11-03T16:30:21.458Z,30.63
2017-11-03T16:32:49.535Z,33.87
2017-11-03T16:35:16.799Z,34.00
2017-11-03T16:37:45.279Z,35.43
2017-11-03T16:40:13.733Z,32.20
2017-11-03T16:42:41.461Z,33.47
2017-11-03T16:45:08.829Z,37.00
2017-11-03T16:47:38.117Z,31.43
2017-11-03T16:50:06.914Z,33.83
2017-11-03T16:52:36.589Z,41.20
2017-11-03T16:55:05.185Z,31.37
2017-11-03T16:57:34.402Z,40.70
2017-11-03T17:00:02.303Z,38.22
2017-11-03T17:02:30.167Z,33.97
2017-11-03T17:04:58.939Z,31.92
2017-11-03T17:07:27.470Z,42.65
2017-11-03T17:09:57.192Z,32.03
2017-11-03T17:12:26.188Z,38.47
2017-11-03T17:14:55.904Z,35.97
2017-11-03T17:17:25.845Z,32.78
2017-11-03T17:19:55.443Z,40.03
2017-11-03T17:22:24.265Z,39.97
2017-11-03T17:24:54.306Z,37.10
2017-11-03T17:27:24.027Z,36.13
2017-11-03T17:29:52.913Z,36.92
2017-11-03T17:32:21.908Z,39.28
2017-11-03T17:34:50.724Z,32.72
2017-11-03T17:37:19.512Z,33.75
2017-11-03T17:39:49.349Z,35.92
2017-11-03T17:42:18.239Z,37.15
2017-11-03T17:44:47.972Z,27.87
2017-11-03T17:47:16.758Z,40.60
2017-11-03T17:49:45.733Z,30.55
2017-11-03T17:52:14.696Z,38.10
2017-11-03T17:54:43.657Z,27.67
2017-11-03T17:57:15.961Z,31.27
2017-11-03T17:59:45.072Z,27.73
2017-11-03T18:02:14.659Z,39.92
2017-11-03T18:04:43.676Z,31.92
2017-11-03T18:07:14.232Z,37.25
2017-11-03T18:09:43.453Z,27.35
2017-11-03T18:12:13.409Z,30.83
2017-11-03T18:14:42.116Z,32.15
2017-11-03T18:17:11.817Z,27.20
2017-11-03T18:19:41.679Z,34.00
2017-11-03T18:22:11.058Z,27.83
2017-11-03T18:24:39.662Z,37.33
2017-11-03T18:27:08.938Z,31.60
2017-11-03T18:29:39.000Z,35.65
2017-11-03T18:32:09.006Z,31.92
2017-11-03T18:34:38.733Z,32.22
2017-11-03T18:37:07.311Z,31.08
2017-11-03T18:39:35.926Z,30.40
2017-11-03T18:42:04.616Z,35.22
2017-11-03T18:44:34.648Z,33.03
2017-11-03T18:47:04.831Z,27.10
2017-11-03T18:49:34.150Z,31.02
2017-11-03T18:52:03.308Z,28.27
2017-11-03T18:54:32.430Z,28.30
2017-11-03T18:57:01.325Z,29.25
2017-11-03T18:59:30.234Z,27.60
2017-11-03T19:01:59.210Z,30.95
2017-11-03T19:04:28.103Z,23.95
2017-11-03T19:06:57.166Z,31.62
2017-11-03T19:09:25.746Z,27.45
2017-11-03T19:11:55.228Z,34.63
2017-11-03T19:14:25.004Z,36.53
2017-11-03T19:16:53.939Z,35.67
2017-11-03T19:19:22.790Z,30.67
2017-11-03T19:21:53.106Z,30.98
2017-11-03T19:24:23.160Z,28.05
2017-11-03T19:26:51.883Z,28.55
2017-11-03T19:29:20.735Z,33.13
2017-11-03T19:31:50.274Z,33.40
2017-11-03T19:34:19.766Z,31.30
2017-11-03T19:36:48.454Z,27.67
2017-11-03T19:39:18.192Z,33.10
2017-11-03T19:41:47.925Z,30.60
2017-11-03T19:44:17.850Z,35.40
2017-11-03T19:46:46.850Z,27.85
2017-11-03T19:49:16.391Z,33.13
2017-11-03T19:51:45.536Z,29.50
2017-11-03T19:54:14.404Z,30.80
2017-11-03T19:56:43.306Z,34.33
2017-11-03T19:59:13.211Z,23.62
2017-11-03T20:01:42.238Z,40.63
2017-11-03T20:04:11.059Z,30.80
2017-11-03T20:06:40.479Z,29.73
2017-11-03T20:09:09.438Z,29.67
2017-11-03T20:11:38.637Z,35.90
2017-11-03T20:14:08.474Z,28.70
2017-11-03T20:16:37.007Z,26.62
2017-11-03T20:19:05.687Z,28.98
2017-11-03T20:21:34.879Z,26.50
2017-11-03T20:24:04.082Z,31.80
2017-11-03T20:26:32.979Z,28.98
2017-11-03T20:29:02.711Z,30.67
2017-11-03T20:31:31.517Z,30.05
2017-11-03T20:34:00.528Z,32.90
2017-11-03T20:36:29.622Z,30.70
2017-11-03T20:39:00.683Z,31.10
2017-11-03T20:41:29.423Z,34.08
2017-11-03T20:43:58.829Z,29.85
2017-11-03T20:46:27.890Z,39.03
2017-11-03T20:48:57.306Z,34.70
2017-11-03T20:51:28.185Z,32.17
2017-11-03T20:53:57.870Z,29.48
2017-11-03T20:56:27.600Z,30.52
2017-11-03T20:58:56.928Z,30.83
2017-11-03T21:01:28.495Z,31.75
2017-11-03T21:03:58.159Z,28.05
2017-11-03T21:06:26.987Z,26.73
2017-11-03T21:08:56.423Z,27.62
2017-11-03T21:11:26.024Z,25.05
2017-11-03T21:13:55.058Z,27.60
2017-11-03T21:16:24.037Z,27.58
2017-11-03T21:18:53.738Z,29.00
2017-11-03T21:21:23.317Z,28.98
2017-11-03T21:23:51.995Z,25.80
2017-11-03T21:26:21.206Z,27.52
2017-11-03T21:28:51.627Z,29.75
2017-11-03T21:31:20.642Z,24.30
2017-11-03T21:33:49.703Z,24.37
2017-11-03T21:36:18.749Z,34.33
2017-11-03T21:38:48.257Z,32.95
2017-11-03T21:41:16.272Z,25.77
2017-11-03T21:43:46.077Z,27.45
2017-11-03T21:46:14.982Z,25.12
2017-11-03T21:48:44.040Z,27.37
2017-11-03T21:51:13.521Z,26.30
2017-11-03T21:53:42.403Z,27.02
2017-11-03T21:56:12.239Z,37.78
2017-11-03T21:58:42.050Z,27.00
2017-11-03T22:01:11.729Z,26.42
2017-11-03T22:03:40.485Z,29.40
2017-11-03T22:06:10.004Z,29.85
2017-11-03T22:08:38.599Z,26.10
2017-11-03T22:11:08.192Z,21.30
2017-11-03T22:13:37.089Z,30.48
2017-11-03T22:16:06.887Z,30.10
2017-11-03T22:18:35.971Z,24.23
2017-11-03T22:21:05.088Z,26.70
2017-11-03T22:23:33.980Z,32.33
2017-11-03T22:26:02.966Z,30.73
2017-11-03T22:28:31.957Z,24.50
2017-11-03T22:31:01.256Z,31.87
2017-11-03T22:33:30.288Z,31.73
2017-11-03T22:35:59.620Z,30.40
2017-11-03T22:38:27.789Z,28.38
2017-11-03T22:40:56.619Z,25.60
2017-11-03T22:43:24.705Z,35.50
2017-11-03T22:45:52.633Z,26.23
2017-11-03T22:48:21.437Z,27.67
2017-11-03T22:50:51.255Z,29.98
2017-11-03T22:53:20.022Z,29.75
2017-11-03T22:55:47.786Z,28.10
2017-11-03T22:58:16.383Z,27.62
2017-11-03T23:00:43.963Z,28.10
2017-11-03T23:03:10.441Z,26.20
2017-11-03T23:05:38.074Z,24.58
2017-11-03T23:08:04.537Z,26.95
2017-11-03T23:10:30.990Z,29.10
2017-11-03T23:12:57.971Z,25.23
2017-11-03T23:15:26.254Z,23.08
2017-11-03T23:17:52.707Z,25.08
2017-11-03T23:20:19.884Z,24.75
2017-11-03T23:22:46.236Z,31.80
2017-11-03T23:25:13.412Z,27.70
2017-11-03T23:27:39.879Z,24.00
2017-11-03T23:30:06.296Z,28.23
2017-11-03T23:32:32.741Z,29.08
2017-11-03T23:34:59.165Z,28.05
2017-11-03T23:37:25.592Z,24.87
2017-11-03T23:39:52.030Z,27.33
2017-11-03T23:42:18.517Z,21.55
2017-11-03T23:44:44.982Z,24.08
2017-11-03T23:47:11.448Z,32.67
2017-11-03T23:49:37.891Z,24.00
2017-11-03T23:52:04.313Z,21.50
2017-11-03T23:54:30.771Z,20.35
2017-11-03T23:56:57.211Z,23.52
2017-11-03T23:59:24.288Z,23.83
